Terminal Aerodrome Forecast
Issued by NWS

Home | Current Version | Previous Version | Text Only | Print | Product List | Glossary On
Versions: 1 2 3 4 5 6 7 8 9 10 11 12 13 14
464
FTUS44 KLIX 221120
TAFGPT
TAF
KGPT 221120Z 2212/2312 VRB04KT P6SM VCTS BKN100CB
     FM221300 VRB03KT P6SM VCTS SCT100CB
     FM222000 18008KT P6SM BKN100 PROB30 2221/2301 4SM -TSRA
      OVC040CB
     FM230100 20007KT P6SM BKN100=

USA.gov is the U.S. government's official web portal to all federal, state and local government web resources and services.